createdAt,value
2022-10-09T00:01:54.924Z,48.15
2022-10-09T00:07:02.115Z,48.02
2022-10-09T00:12:09.232Z,48.13
2022-10-09T00:17:16.446Z,48.13
2022-10-09T00:22:23.680Z,48.05
2022-10-09T00:27:30.887Z,48.18
2022-10-09T00:32:38.197Z,48.03
2022-10-09T00:37:45.630Z,47.98
2022-10-09T00:42:52.776Z,47.93
2022-10-09T00:47:59.927Z,48.00
2022-10-09T00:53:07.208Z,47.98
2022-10-09T00:58:14.355Z,47.97
2022-10-09T01:03:21.599Z,47.89
2022-10-09T01:08:28.816Z,47.91
2022-10-09T01:13:36.007Z,48.02
2022-10-09T01:18:43.251Z,48.02
2022-10-09T01:23:50.541Z,47.97
2022-10-09T01:28:57.712Z,47.83
2022-10-09T01:34:04.887Z,47.78
2022-10-09T01:39:12.152Z,47.67
2022-10-09T01:44:19.307Z,47.60
2022-10-09T01:49:26.532Z,47.45
2022-10-09T01:54:33.756Z,47.56
2022-10-09T01:59:40.943Z,47.49
2022-10-09T02:04:48.154Z,47.51
2022-10-09T02:09:55.328Z,47.65
2022-10-09T02:15:02.454Z,47.75
2022-10-09T02:20:09.663Z,47.69
2022-10-09T02:25:16.908Z,47.81
2022-10-09T02:30:24.058Z,48.00
2022-10-09T02:35:31.331Z,48.16
2022-10-09T02:40:38.763Z,48.34
2022-10-09T02:45:45.861Z,48.49
2022-10-09T02:50:53.143Z,48.58
2022-10-09T02:56:00.348Z,48.70
2022-10-09T03:01:07.503Z,48.84
2022-10-09T03:06:14.689Z,48.95
2022-10-09T03:11:21.944Z,49.00
2022-10-09T03:16:29.185Z,49.19
2022-10-09T03:21:36.346Z,49.22
2022-10-09T03:26:43.559Z,49.39
2022-10-09T03:31:52.849Z,49.42
2022-10-09T03:36:57.960Z,49.44
2022-10-09T03:42:05.245Z,49.27
2022-10-09T03:47:12.475Z,49.05
2022-10-09T03:52:19.672Z,48.91
2022-10-09T03:57:26.923Z,48.87
2022-10-09T04:02:34.632Z,48.82
2022-10-09T04:07:41.772Z,48.73
2022-10-09T04:12:49.237Z,48.65
2022-10-09T04:17:56.130Z,48.62
2022-10-09T04:23:03.283Z,48.55
2022-10-09T04:28:10.673Z,48.54
2022-10-09T04:33:17.796Z,48.46
2022-10-09T04:38:24.962Z,48.42
2022-10-09T04:43:32.151Z,48.42
2022-10-09T04:48:39.312Z,48.41
2022-10-09T04:53:46.561Z,48.42
2022-10-09T04:58:53.752Z,48.40
2022-10-09T05:04:00.928Z,48.54
2022-10-09T05:09:08.135Z,48.65
2022-10-09T05:14:15.462Z,48.78
2022-10-09T05:19:22.624Z,48.90
2022-10-09T05:24:29.917Z,48.99
2022-10-09T05:29:37.144Z,49.04
2022-10-09T05:34:44.332Z,48.96
2022-10-09T05:39:51.590Z,48.90
2022-10-09T05:44:58.810Z,48.82
2022-10-09T05:50:05.997Z,48.84
2022-10-09T05:55:13.200Z,48.85
2022-10-09T06:00:20.428Z,48.82
2022-10-09T06:05:27.590Z,48.74
2022-10-09T06:10:34.802Z,48.68
2022-10-09T06:15:42.068Z,48.61
2022-10-09T06:20:49.254Z,48.62
2022-10-09T06:25:56.449Z,48.57
2022-10-09T06:31:03.950Z,48.62
2022-10-09T06:36:11.038Z,48.64
2022-10-09T06:41:18.245Z,48.71
2022-10-09T06:46:25.562Z,48.71
2022-10-09T06:51:32.665Z,48.74
2022-10-09T06:56:39.850Z,48.78
2022-10-09T07:01:47.136Z,48.84
2022-10-09T07:06:54.576Z,48.81
2022-10-09T07:12:01.778Z,48.74
2022-10-09T07:17:08.992Z,48.47
2022-10-09T07:22:16.128Z,48.51
2022-10-09T07:27:23.272Z,48.48
2022-10-09T07:32:30.501Z,48.63
2022-10-09T07:37:37.711Z,48.68
2022-10-09T07:42:44.967Z,48.57
2022-10-09T07:47:52.285Z,48.45
2022-10-09T07:52:59.421Z,48.33
2022-10-09T07:58:06.619Z,48.26
2022-10-09T08:03:13.928Z,48.21
2022-10-09T08:08:21.168Z,48.13
2022-10-09T08:13:28.342Z,48.07
2022-10-09T08:18:35.605Z,48.02
2022-10-09T08:23:42.748Z,48.00
2022-10-09T08:28:50.048Z,47.91
2022-10-09T08:33:57.185Z,47.83
2022-10-09T08:39:04.387Z,47.75
2022-10-09T08:44:11.663Z,47.64
2022-10-09T08:49:18.886Z,47.61
2022-10-09T08:54:26.100Z,47.59
2022-10-09T08:59:33.391Z,48.03
2022-10-09T09:04:40.593Z,47.84
2022-10-09T09:09:47.775Z,47.78
2022-10-09T09:14:54.981Z,47.78
2022-10-09T09:20:02.237Z,47.82
2022-10-09T09:25:09.373Z,47.63
2022-10-09T09:30:16.575Z,47.62
2022-10-09T09:35:23.805Z,47.54
2022-10-09T09:40:36.689Z,47.41
2022-10-09T09:45:38.233Z,47.38
2022-10-09T09:50:52.932Z,47.29
2022-10-09T09:55:52.641Z,47.34
2022-10-09T10:00:59.889Z,47.29
2022-10-09T10:06:07.154Z,47.23
2022-10-09T10:11:14.330Z,47.17
2022-10-09T10:16:21.547Z,47.09
2022-10-09T10:21:28.689Z,47.08
2022-10-09T10:26:35.886Z,47.07
2022-10-09T10:31:43.096Z,47.07
2022-10-09T10:36:50.304Z,47.08
2022-10-09T10:41:57.465Z,47.12
2022-10-09T10:47:04.637Z,47.10
2022-10-09T10:52:13.562Z,47.13
2022-10-09T10:57:20.798Z,47.13
2022-10-09T11:02:30.869Z,47.10
2022-10-09T11:07:35.309Z,47.05
2022-10-09T11:12:48.198Z,47.05
2022-10-09T11:17:49.824Z,47.00
2022-10-09T11:22:57.093Z,47.01
2022-10-09T11:28:04.271Z,47.01
2022-10-09T11:33:11.589Z,47.02
2022-10-09T11:38:18.789Z,47.07
2022-10-09T11:43:26.059Z,47.13
2022-10-09T11:48:33.279Z,47.14
2022-10-09T11:53:40.487Z,47.19
2022-10-09T11:58:48.201Z,47.13
2022-10-09T12:03:59.992Z,47.14
2022-10-09T12:09:02.686Z,47.07
2022-10-09T12:14:09.910Z,47.10
2022-10-09T12:19:17.240Z,47.07
2022-10-09T12:24:24.419Z,47.04
2022-10-09T12:29:31.627Z,47.04
2022-10-09T12:34:38.906Z,47.06
2022-10-09T12:39:46.186Z,47.13
2022-10-09T12:44:53.328Z,47.14
2022-10-09T12:50:00.559Z,47.17
2022-10-09T12:55:07.852Z,47.21
2022-10-09T13:00:15.065Z,47.21
2022-10-09T13:05:22.289Z,47.22
2022-10-09T13:10:29.491Z,47.23
2022-10-09T13:15:36.682Z,47.22
2022-10-09T13:20:43.872Z,47.23
2022-10-09T13:25:51.138Z,47.26
2022-10-09T13:30:58.478Z,47.30
2022-10-09T13:36:05.548Z,47.32
2022-10-09T13:41:12.747Z,47.36
2022-10-09T13:46:19.993Z,47.45
2022-10-09T13:51:27.125Z,47.49
2022-10-09T13:56:34.316Z,47.62
2022-10-09T14:01:41.564Z,47.63
2022-10-09T14:06:48.803Z,47.67
2022-10-09T14:11:56.074Z,47.71
2022-10-09T14:17:03.240Z,47.89
2022-10-09T14:22:10.415Z,48.00
2022-10-09T14:27:17.775Z,48.19
2022-10-09T14:32:24.917Z,48.14
2022-10-09T14:37:42.464Z,48.01
2022-10-09T14:42:39.391Z,47.89
2022-10-09T14:47:46.573Z,47.87
2022-10-09T14:52:53.769Z,47.82
2022-10-09T14:58:01.269Z,47.99
2022-10-09T15:03:08.482Z,47.96
2022-10-09T15:08:15.654Z,47.98
2022-10-09T15:13:22.928Z,47.90
2022-10-09T15:18:30.095Z,47.65
2022-10-09T15:23:37.355Z,47.88
2022-10-09T15:28:44.801Z,47.91
2022-10-09T15:33:51.811Z,47.77
2022-10-09T15:38:59.025Z,47.87
2022-10-09T15:44:06.432Z,48.20
2022-10-09T15:49:13.575Z,48.36
2022-10-09T15:54:20.819Z,48.42
2022-10-09T15:59:27.994Z,48.26
2022-10-09T16:04:35.154Z,48.26
2022-10-09T16:09:42.329Z,48.31
2022-10-09T16:14:49.561Z,48.24
2022-10-09T16:19:56.763Z,48.19
2022-10-09T16:25:04.008Z,48.23
2022-10-09T16:30:11.201Z,48.20
2022-10-09T16:35:18.591Z,48.25
2022-10-09T16:40:49.964Z,48.17
2022-10-09T16:45:33.125Z,48.16
2022-10-09T16:50:40.368Z,48.31
2022-10-09T16:55:47.804Z,48.04
2022-10-09T17:00:55.171Z,47.89
2022-10-09T17:06:02.627Z,47.82
2022-10-09T17:11:09.970Z,47.74
2022-10-09T17:16:18.399Z,47.71
2022-10-09T17:21:27.788Z,48.01
2022-10-09T17:26:31.961Z,48.33
2022-10-09T17:31:39.316Z,48.18
2022-10-09T17:36:46.778Z,48.18
2022-10-09T17:41:54.171Z,47.97
2022-10-09T17:47:01.721Z,47.91
2022-10-09T17:52:09.316Z,47.90
2022-10-09T17:57:16.646Z,47.90
2022-10-09T18:02:24.157Z,47.81
2022-10-09T18:07:31.476Z,47.84
2022-10-09T18:12:40.593Z,47.80
2022-10-09T18:17:48.785Z,47.68
2022-10-09T18:22:55.702Z,47.59
2022-10-09T18:28:03.024Z,47.55
2022-10-09T18:33:10.456Z,47.43
2022-10-09T18:38:17.987Z,47.37
2022-10-09T18:43:25.663Z,47.33
2022-10-09T18:48:33.336Z,47.33
2022-10-09T18:53:40.895Z,47.30
2022-10-09T18:58:48.320Z,47.26
2022-10-09T19:03:56.348Z,47.19
2022-10-09T19:09:03.569Z,47.15
2022-10-09T19:14:11.041Z,47.04
2022-10-09T19:19:18.495Z,47.02
2022-10-09T19:24:25.666Z,47.01
2022-10-09T19:29:33.171Z,47.02
2022-10-09T19:34:40.614Z,46.96
2022-10-09T19:39:48.090Z,46.94
2022-10-09T19:44:55.475Z,46.97
2022-10-09T19:50:03.033Z,47.01
2022-10-09T19:55:10.390Z,46.97
2022-10-09T20:00:17.596Z,47.16
2022-10-09T20:05:26.500Z,47.14
2022-10-09T20:10:33.886Z,46.92
2022-10-09T20:15:41.113Z,46.77
2022-10-09T20:20:48.320Z,46.72
2022-10-09T20:25:55.489Z,46.65
2022-10-09T20:31:02.659Z,46.65
2022-10-09T20:36:09.889Z,46.64
2022-10-09T20:41:18.878Z,46.76
2022-10-09T20:46:26.105Z,46.78
2022-10-09T20:51:33.361Z,46.74
2022-10-09T20:56:40.539Z,46.78
2022-10-09T21:01:47.801Z,46.92
2022-10-09T21:06:54.974Z,46.97
2022-10-09T21:12:02.081Z,47.17
2022-10-09T21:17:09.287Z,47.21
2022-10-09T21:22:16.540Z,47.20
2022-10-09T21:27:23.715Z,47.21
2022-10-09T21:32:30.900Z,47.27
2022-10-09T21:37:38.152Z,47.30
2022-10-09T21:42:45.290Z,47.26
2022-10-09T21:47:52.538Z,47.08
2022-10-09T21:52:59.773Z,47.07
2022-10-09T21:58:06.978Z,46.94
2022-10-09T22:03:14.223Z,46.79
2022-10-09T22:08:21.480Z,46.71
2022-10-09T22:13:28.756Z,46.56
2022-10-09T22:18:35.945Z,46.61
2022-10-09T22:23:43.226Z,46.57
2022-10-09T22:28:51.231Z,46.39
2022-10-09T22:33:58.494Z,46.25
2022-10-09T22:39:05.659Z,46.29
2022-10-09T22:44:12.846Z,46.23
2022-10-09T22:49:20.081Z,46.10
2022-10-09T22:54:27.289Z,46.05
2022-10-09T22:59:34.509Z,45.97
2022-10-09T23:04:41.709Z,45.93
2022-10-09T23:09:48.935Z,45.91
2022-10-09T23:14:56.127Z,45.91
2022-10-09T23:20:03.370Z,45.82
2022-10-09T23:25:10.559Z,46.04
2022-10-09T23:30:17.736Z,45.78
2022-10-09T23:35:25.009Z,45.88
2022-10-09T23:40:32.273Z,45.84
2022-10-09T23:45:39.434Z,45.69
2022-10-09T23:50:46.684Z,45.72
2022-10-09T23:55:53.864Z,45.69
